KFSM/FSM METAR and TAF weather

Enter ICAO airport designator
Station Type Date Time Source
KFSM METAR 2022/05/26 03:53 UTC NOAA

KFSM 260353Z AUTO 23007KT 10SM FEW049 BKN060 15/11 A2980 RMK AO2 SLP088 T01500111


Station Type Date Time Source
KFSM Decoded METAR 2022/05/26 03:53 UTC NOAA

FORT SMITH REGIONAL AIRPORT, AR, United States (KFSM) 35-20N 94-22W 140M
May 25, 2022 - 11:53 PM EDT / 2022.05.26 0353 UTC
Wind: from the SW (230 degrees) at 8 MPH (7 KT):0
Visibility: 10 mile(s):0
Sky conditions: mostly cloudy
Temperature: 59.0 F (15.0 C)
Dew Point: 52.0 F (11.1 C)
Relative Humidity: 77%
Pressure (altimeter): 29.8 in. Hg (1009 hPa)
ob: KFSM 260353Z AUTO 23007KT 10SM FEW049 BKN060 15/11 A2980 RMK AO2 SLP088 T01500111
cycle: 4

Station Type Date Time Source
KFSM TAF 2022/05/25 18:48 UTC NOAA

TAF KFSM 251746Z 2518/2618 23008KT P6SM VCSH BKN035
FM260300 21006KT P6SM BKN025
TEMPO 2610/2614 4SM -SHRA BKN007
FM261400 24010G18KT P6SM OVC005

Example: see airport list